Time;durP1;ratioP1;P1;durP2;ratioP2;P2;SDS_P1;SDS_P2;PMS_P1;PMS_P2;Temp;Humidity;BMP_temperature;BMP_pressure;BME280_temperature;BME280_humidity;BME280_pressure;Samples;Min_cycle;Max_cycle;Signal;HPM_P1;HPM_P2
2022/06/29 00:01:47;;;;;;;9.23;8.23;;;18.20;99.90;;;;;;4992357;28;20630;-68
2022/06/29 00:04:12;;;;;;;7.83;7.20;;;18.20;99.90;;;;;;4998669;28;20218;-67
2022/06/29 00:06:38;;;;;;;11.63;8.57;;;18.10;99.90;;;;;;4991585;28;20670;-68
2022/06/29 00:09:04;;;;;;;8.23;7.73;;;18.10;99.90;;;;;;4988937;28;21978;-67
2022/06/29 00:11:29;;;;;;;7.40;6.80;;;18.10;99.90;;;;;;4990486;28;20195;-68
2022/06/29 00:13:55;;;;;;;8.20;7.40;;;18.10;99.90;;;;;;4990744;28;20215;-68
2022/06/29 00:16:20;;;;;;;8.87;7.97;;;18.10;99.90;;;;;;4991263;28;20219;-67
2022/06/29 00:18:46;;;;;;;9.27;8.47;;;18.10;99.90;;;;;;4990794;28;20211;-68
2022/06/29 00:21:12;;;;;;;8.50;7.70;;;18.00;99.90;;;;;;4989534;28;20186;-67
2022/06/29 00:23:37;;;;;;;9.13;8.43;;;18.10;99.90;;;;;;4992204;28;20548;-68
2022/06/29 00:26:03;;;;;;;9.40;8.60;;;18.00;99.90;;;;;;4991138;28;20225;-68
2022/06/29 00:28:29;;;;;;;8.63;8.03;;;17.90;99.90;;;;;;4989292;28;20238;-68
2022/06/29 00:30:55;;;;;;;8.67;7.77;;;18.00;99.90;;;;;;4990701;28;20183;-67
2022/06/29 00:33:20;;;;;;;9.07;8.17;;;18.00;99.90;;;;;;5001905;28;20496;-69
2022/06/29 00:35:46;;;;;;;7.87;7.27;;;17.90;99.90;;;;;;4994202;28;20269;-67
2022/06/29 00:38:12;;;;;;;8.17;7.67;;;17.90;99.90;;;;;;4988916;28;20258;-67
2022/06/29 00:40:37;;;;;;;8.60;7.80;;;17.80;99.90;;;;;;4990566;28;20618;-67
2022/06/29 00:43:03;;;;;;;8.47;7.73;;;17.70;99.90;;;;;;4988403;28;20199;-67
2022/06/29 00:45:29;;;;;;;8.23;7.53;;;17.70;99.90;;;;;;4996987;28;20632;-68
2022/06/29 00:47:54;;;;;;;9.03;8.33;;;17.70;99.90;;;;;;4992048;28;20258;-68
2022/06/29 00:50:20;;;;;;;9.60;8.90;;;17.70;99.90;;;;;;4990886;28;20180;-67
2022/06/29 00:52:46;;;;;;;9.67;8.70;;;17.70;99.90;;;;;;4991713;28;20195;-67
2022/06/29 00:55:17;;;;;;;8.90;7.97;;;17.60;99.90;;;;;;4999000;28;20250;-67
2022/06/29 00:57:46;;;;;;;8.73;7.93;;;17.70;99.90;;;;;;4990719;28;20206;-68
2022/06/29 01:00:13;;;;;;;8.80;8.10;;;17.70;99.90;;;;;;4997737;28;20971;-67
2022/06/29 01:02:38;;;;;;;9.00;8.20;;;17.70;99.90;;;;;;4992096;28;20442;-67
2022/06/29 01:05:05;;;;;;;9.87;9.07;;;17.70;99.90;;;;;;4989482;28;20452;-68
2022/06/29 01:07:33;;;;;;;8.33;7.73;;;17.60;99.90;;;;;;4989374;28;20696;-69
2022/06/29 01:10:00;;;;;;;10.30;8.37;;;17.60;99.90;;;;;;4989416;28;20443;-69
2022/06/29 01:12:26;;;;;;;10.30;9.50;;;17.50;99.90;;;;;;4996366;28;20477;-66
2022/06/29 01:14:53;;;;;;;8.67;8.00;;;17.50;99.90;;;;;;4992856;28;21014;-66
2022/06/29 01:17:21;;;;;;;8.73;8.03;;;17.50;99.90;;;;;;4992335;28;21019;-67
2022/06/29 01:19:47;;;;;;;8.63;7.93;;;17.60;99.90;;;;;;4998067;28;20470;-69
2022/06/29 01:22:12;;;;;;;9.47;8.87;;;17.60;99.90;;;;;;4996602;28;20537;-68
2022/06/29 01:24:39;;;;;;;9.67;8.97;;;17.50;99.90;;;;;;4990597;28;20246;-66
2022/06/29 01:27:05;;;;;;;8.97;8.17;;;17.50;99.90;;;;;;4989478;28;20242;-68
2022/06/29 01:29:30;;;;;;;8.67;8.07;;;17.60;99.90;;;;;;4990584;28;20447;-68
2022/06/29 01:31:57;;;;;;;9.30;8.70;;;17.60;99.90;;;;;;4989457;28;20481;-68
2022/06/29 01:34:23;;;;;;;8.40;7.70;;;17.60;99.90;;;;;;4995562;28;20178;-66
2022/06/29 01:36:49;;;;;;;9.13;8.43;;;17.50;99.90;;;;;;4992580;28;20466;-66
2022/06/29 01:39:15;;;;;;;9.90;9.00;;;17.50;99.90;;;;;;4989735;28;20446;-66
2022/06/29 01:41:41;;;;;;;9.43;8.60;;;17.50;99.90;;;;;;4993750;28;20184;-71
2022/06/29 01:44:06;;;;;;;8.77;8.17;;;17.60;99.90;;;;;;4993274;28;20203;-68
2022/06/29 01:46:32;;;;;;;8.27;7.70;;;17.60;99.90;;;;;;4994174;28;20215;-68
2022/06/29 01:48:57;;;;;;;8.47;7.87;;;17.70;99.90;;;;;;4987202;28;20561;-71
2022/06/29 01:51:23;;;;;;;8.57;7.90;;;17.60;99.90;;;;;;4989972;28;20176;-68
2022/06/29 01:53:48;;;;;;;8.33;7.73;;;17.50;99.90;;;;;;4994793;28;20669;-69
2022/06/29 01:56:14;;;;;;;8.53;7.90;;;17.40;99.90;;;;;;4990638;28;20211;-71
2022/06/29 01:58:40;;;;;;;9.00;8.30;;;17.40;99.90;;;;;;4991509;28;20186;-68
2022/06/29 02:01:05;;;;;;;8.80;7.90;;;17.40;99.90;;;;;;4993219;28;20191;-68
2022/06/29 02:03:31;;;;;;;8.50;7.80;;;17.40;99.90;;;;;;4993779;28;20218;-70
2022/06/29 02:05:57;;;;;;;8.97;8.30;;;17.50;99.90;;;;;;5001736;28;20286;-67
2022/06/29 02:08:22;;;;;;;7.77;7.27;;;17.50;99.90;;;;;;4993086;28;20909;-66
2022/06/29 02:10:48;;;;;;;8.57;7.80;;;17.60;99.90;;;;;;4997868;28;20195;-66
2022/06/29 02:13:14;;;;;;;9.50;8.70;;;17.70;99.90;;;;;;4994049;28;20183;-66
2022/06/29 02:15:39;;;;;;;8.80;8.20;;;17.60;99.90;;;;;;4993356;28;20578;-69
2022/06/29 02:18:05;;;;;;;8.90;7.47;;;17.60;99.90;;;;;;5000473;28;20191;-74
2022/06/29 02:20:30;;;;;;;8.13;7.53;;;17.50;99.90;;;;;;4992078;28;20184;-69
2022/06/29 02:22:56;;;;;;;8.63;8.03;;;17.60;99.90;;;;;;4990588;28;20186;-68
2022/06/29 02:25:21;;;;;;;8.67;8.00;;;17.50;99.90;;;;;;4992894;28;20186;-66
2022/06/29 02:27:47;;;;;;;8.57;7.97;;;17.50;99.90;;;;;;4992555;28;20207;-66
2022/06/29 02:30:14;;;;;;;8.10;7.33;;;17.50;99.90;;;;;;4991764;28;20190;-71
2022/06/29 02:35:26;;;;;;;9.40;8.73;;;17.30;99.90;;;;;;4993948;28;20550;-68
2022/06/29 02:37:51;;;;;;;8.73;8.03;;;17.30;99.90;;;;;;4992098;28;20819;-67
2022/06/29 02:40:17;;;;;;;8.87;8.20;;;17.30;99.90;;;;;;4997198;28;20521;-66
2022/06/29 02:42:42;;;;;;;11.77;9.60;;;17.20;99.90;;;;;;4996841;28;20183;-66
2022/06/29 02:45:08;;;;;;;8.37;7.67;;;17.20;99.90;;;;;;4996304;28;20180;-69
2022/06/29 02:47:34;;;;;;;8.77;8.07;;;17.20;99.90;;;;;;4996518;28;20773;-68
2022/06/29 02:49:59;;;;;;;8.90;8.30;;;17.20;99.90;;;;;;4993266;28;20945;-68
2022/06/29 02:52:25;;;;;;;8.50;7.90;;;17.20;99.90;;;;;;4997255;28;20234;-69
2022/06/29 02:54:50;;;;;;;7.77;7.07;;;17.30;99.90;;;;;;4991004;28;20616;-68
2022/06/29 02:57:16;;;;;;;9.33;8.53;;;17.30;99.90;;;;;;4993689;28;20200;-68
2022/06/29 02:59:41;;;;;;;8.67;7.97;;;17.30;99.90;;;;;;4992673;28;20172;-75
2022/06/29 03:02:07;;;;;;;9.47;8.53;;;17.20;99.90;;;;;;4989975;28;20695;-68
2022/06/29 03:04:35;;;;;;;9.50;8.60;;;17.30;99.90;;;;;;4992783;28;20176;-68
2022/06/29 03:07:01;;;;;;;9.33;8.73;;;17.30;99.90;;;;;;4991635;28;20549;-66
2022/06/29 03:09:27;;;;;;;8.57;7.80;;;17.20;99.90;;;;;;4991826;28;20550;-69
2022/06/29 03:11:52;;;;;;;9.30;8.50;;;17.10;99.90;;;;;;5000269;28;20520;-70
2022/06/29 03:14:18;;;;;;;9.63;8.93;;;17.10;99.90;;;;;;4991664;28;20172;-69
2022/06/29 03:16:44;;;;;;;8.57;7.87;;;17.10;99.90;;;;;;4993177;28;20697;-68
2022/06/29 03:19:09;;;;;;;9.17;8.47;;;17.20;99.90;;;;;;4991905;28;20183;-68
2022/06/29 03:21:35;;;;;;;8.37;7.77;;;17.30;99.90;;;;;;4993382;28;20263;-68
2022/06/29 03:24:03;;;;;;;9.43;8.63;;;17.20;99.90;;;;;;4992880;28;20186;-68
2022/06/29 03:26:32;;;;;;;8.97;8.17;;;17.10;99.90;;;;;;4998552;28;20618;-68
2022/06/29 03:28:57;;;;;;;9.03;8.33;;;17.00;99.90;;;;;;4991541;28;20438;-68
2022/06/29 03:31:23;;;;;;;9.27;8.63;;;17.00;99.90;;;;;;4992494;28;20438;-69
2022/06/29 03:33:48;;;;;;;9.70;9.10;;;17.10;99.90;;;;;;4993237;28;20661;-73
2022/06/29 03:36:14;;;;;;;8.87;8.13;;;17.10;99.90;;;;;;4999924;28;20223;-66
2022/06/29 03:38:39;;;;;;;9.63;8.93;;;17.10;99.90;;;;;;4990572;28;20544;-68
2022/06/29 03:41:05;;;;;;;8.33;7.80;;;17.00;99.90;;;;;;4995052;28;20661;-69
2022/06/29 03:43:31;;;;;;;10.30;9.50;;;17.00;99.90;;;;;;4993699;28;20588;-69
2022/06/29 03:45:57;;;;;;;8.90;8.13;;;17.00;99.90;;;;;;4990280;28;20254;-68
2022/06/29 03:48:22;;;;;;;8.20;7.60;;;17.00;99.90;;;;;;4987926;28;20184;-66
2022/06/29 03:50:49;;;;;;;8.00;7.40;;;17.00;99.90;;;;;;4993207;28;20195;-70
2022/06/29 03:53:15;;;;;;;11.97;8.37;;;17.00;99.90;;;;;;4993615;28;20184;-69
2022/06/29 03:55:40;;;;;;;9.60;8.90;;;17.00;99.90;;;;;;5003127;28;20464;-72
2022/06/29 03:58:06;;;;;;;9.00;8.30;;;17.00;99.90;;;;;;4997705;28;20204;-68
2022/06/29 04:00:31;;;;;;;8.77;8.17;;;16.90;99.90;;;;;;4995388;28;20177;-68
2022/06/29 04:02:57;;;;;;;11.20;10.40;;;16.90;99.90;;;;;;4993418;28;20179;-69
2022/06/29 04:05:22;;;;;;;9.80;9.00;;;17.00;99.90;;;;;;4996854;28;20175;-68
2022/06/29 04:07:48;;;;;;;9.97;9.27;;;17.00;99.90;;;;;;5000130;28;20225;-76
2022/06/29 04:10:13;;;;;;;9.67;8.87;;;17.00;99.90;;;;;;4990527;28;20271;-70
2022/06/29 04:12:39;;;;;;;8.93;8.33;;;17.10;99.90;;;;;;4993816;28;20569;-68
2022/06/29 04:15:05;;;;;;;10.13;8.57;;;17.10;99.90;;;;;;4988887;28;20200;-70
2022/06/29 04:17:31;;;;;;;8.37;7.73;;;17.20;99.90;;;;;;4974570;28;20670;-68
2022/06/29 04:19:57;;;;;;;9.40;8.70;;;17.30;99.90;;;;;;4988875;28;20462;-68
2022/06/29 04:22:22;;;;;;;8.30;7.60;;;17.50;99.90;;;;;;4991882;28;20180;-72
2022/06/29 04:24:49;;;;;;;8.70;7.93;;;17.60;99.90;;;;;;4990953;28;20266;-68
2022/06/29 04:27:15;;;;;;;10.63;9.13;;;17.70;99.90;;;;;;4990897;28;20318;-70
2022/06/29 04:29:40;;;;;;;8.10;7.50;;;17.70;99.90;;;;;;4989612;28;20525;-67
2022/06/29 04:32:06;;;;;;;8.67;7.90;;;17.80;99.90;;;;;;4989178;28;20257;-69
2022/06/29 04:34:32;;;;;;;8.90;8.20;;;17.90;99.90;;;;;;4989128;28;20318;-68
2022/06/29 04:36:57;;;;;;;9.90;9.20;;;18.10;99.90;;;;;;4991177;28;20560;-72
2022/06/29 04:39:23;;;;;;;8.70;8.00;;;18.20;99.90;;;;;;4990656;28;20192;-76
2022/06/29 04:41:52;;;;;;;9.53;8.83;;;18.20;99.90;;;;;;4988826;28;20242;-74
2022/06/29 04:44:17;;;;;;;10.50;9.70;;;18.20;99.90;;;;;;4990418;28;20630;-70
2022/06/29 04:46:42;;;;;;;10.13;9.40;;;18.30;99.90;;;;;;4990649;28;20558;-69
2022/06/29 04:49:09;;;;;;;9.47;8.73;;;18.30;99.90;;;;;;4989317;28;20192;-68
2022/06/29 04:51:35;;;;;;;10.23;9.33;;;18.30;99.90;;;;;;4991824;28;20179;-73
2022/06/29 04:54:01;;;;;;;11.00;10.00;;;18.40;99.90;;;;;;4988840;28;20438;-68
2022/06/29 04:56:29;;;;;;;10.80;10.00;;;18.40;99.90;;;;;;4988271;28;21026;-71
2022/06/29 04:58:56;;;;;;;9.83;9.13;;;18.40;99.90;;;;;;4989043;28;20470;-77
2022/06/29 05:01:23;;;;;;;10.60;9.07;;;18.50;99.90;;;;;;4987066;28;20439;-72
2022/06/29 05:03:49;;;;;;;11.70;10.20;;;18.60;99.90;;;;;;4991402;28;20458;-68
2022/06/29 05:06:15;;;;;;;10.07;9.37;;;18.80;99.90;;;;;;4999251;28;20898;-68
2022/06/29 05:08:41;;;;;;;9.73;8.97;;;18.90;99.90;;;;;;4997717;28;20571;-69
2022/06/29 05:11:07;;;;;;;10.33;9.33;;;18.90;99.90;;;;;;4997812;28;20435;-70
2022/06/29 05:13:32;;;;;;;9.00;8.20;;;18.90;99.90;;;;;;5000094;28;20175;-67
2022/06/29 05:15:58;;;;;;;9.53;8.33;;;19.00;99.90;;;;;;5001480;28;20249;-67
2022/06/29 05:18:24;;;;;;;8.70;8.00;;;19.10;99.90;;;;;;4998235;28;20179;-70
2022/06/29 05:20:50;;;;;;;9.80;9.10;;;19.10;99.90;;;;;;4992358;28;20180;-70
2022/06/29 05:23:15;;;;;;;9.90;7.80;;;19.10;99.90;;;;;;4998078;28;20840;-67
2022/06/29 05:25:41;;;;;;;9.33;8.53;;;19.10;99.90;;;;;;4999299;28;20195;-67
2022/06/29 05:28:07;;;;;;;9.03;8.23;;;19.20;99.90;;;;;;4997117;28;20552;-68
2022/06/29 05:30:33;;;;;;;10.60;9.60;;;19.10;99.90;;;;;;4999789;28;20171;-68
2022/06/29 05:32:59;;;;;;;12.03;9.33;;;19.20;99.90;;;;;;5003353;28;20980;-68
2022/06/29 05:35:24;;;;;;;12.63;9.17;;;19.30;99.90;;;;;;5003811;28;20218;-67
2022/06/29 05:37:50;;;;;;;10.43;9.53;;;19.40;99.90;;;;;;4998862;28;20233;-67
2022/06/29 05:40:16;;;;;;;9.43;8.73;;;19.60;99.90;;;;;;4999256;28;20559;-68
2022/06/29 05:42:41;;;;;;;8.87;8.17;;;19.80;99.90;;;;;;5005894;28;20183;-71
2022/06/29 05:45:07;;;;;;;9.37;8.70;;;20.00;99.90;;;;;;5001831;28;20183;-68
2022/06/29 05:47:33;;;;;;;9.37;8.67;;;20.20;99.90;;;;;;5001212;28;20219;-67
2022/06/29 05:50:00;;;;;;;10.17;9.27;;;20.50;99.90;;;;;;5001394;28;20958;-72
2022/06/29 05:52:29;;;;;;;10.93;9.93;;;20.60;99.90;;;;;;4998706;28;20649;-67
2022/06/29 05:54:54;;;;;;;10.77;9.90;;;20.80;99.90;;;;;;5005192;28;20465;-69
2022/06/29 05:57:20;;;;;;;11.73;10.80;;;20.80;99.90;;;;;;4996391;28;21034;-67
2022/06/29 05:59:48;;;;;;;10.67;9.67;;;20.90;99.90;;;;;;4998539;28;20183;-67
2022/06/29 06:02:14;;;;;;;9.80;9.03;;;20.90;99.90;;;;;;4991556;28;20293;-67
2022/06/29 06:04:40;;;;;;;12.50;9.30;;;20.90;99.90;;;;;;4988895;28;20530;-69
2022/06/29 06:07:06;;;;;;;10.77;9.80;;;20.90;99.90;;;;;;4986556;28;20199;-72
2022/06/29 06:09:32;;;;;;;10.40;9.50;;;20.90;99.90;;;;;;4995340;28;20462;-67
2022/06/29 06:11:58;;;;;;;11.07;9.97;;;20.90;99.90;;;;;;4992222;28;20176;-70
2022/06/29 06:14:24;;;;;;;8.87;8.27;;;20.90;99.90;;;;;;4991202;28;20798;-67
2022/06/29 06:16:50;;;;;;;10.97;9.00;;;20.90;99.90;;;;;;4990110;28;20465;-67
2022/06/29 06:19:16;;;;;;;9.40;8.70;;;21.10;99.90;;;;;;4991415;28;20466;-75
2022/06/29 06:21:41;;;;;;;9.00;8.40;;;21.30;99.90;;;;;;4991744;28;20434;-68
2022/06/29 06:24:07;;;;;;;10.37;9.47;;;21.60;99.90;;;;;;4989751;28;20171;-68
2022/06/29 06:26:32;;;;;;;10.67;9.60;;;21.70;99.90;;;;;;4989484;28;20211;-68
2022/06/29 06:28:58;;;;;;;9.63;8.90;;;21.80;99.90;;;;;;4998450;28;20275;-67
2022/06/29 06:31:25;;;;;;;9.70;8.90;;;21.90;99.90;;;;;;4993745;28;20234;-68
2022/06/29 06:33:50;;;;;;;11.40;10.37;;;22.00;99.90;;;;;;4993066;28;20449;-67
2022/06/29 06:36:16;;;;;;;9.93;9.13;;;22.20;99.90;;;;;;5000825;28;20478;-69
2022/06/29 06:38:41;;;;;;;9.53;8.83;;;22.20;99.90;;;;;;4999630;28;20198;-67
2022/06/29 06:41:22;;;;;;;10.47;9.07;;;22.30;99.90;;;;;;5001584;28;20559;-67
2022/06/29 06:43:50;;;;;;;11.77;10.80;;;22.50;99.90;;;;;;5003675;28;20179;-65
2022/06/29 06:46:15;;;;;;;9.10;8.50;;;22.50;99.90;;;;;;5002784;28;20541;-66
2022/06/29 06:48:43;;;;;;;9.37;8.63;;;22.80;99.90;;;;;;4993967;28;20873;-67
2022/06/29 06:51:10;;;;;;;8.50;7.90;;;23.10;99.90;;;;;;4999769;28;20638;-66
2022/06/29 06:53:35;;;;;;;9.10;8.33;;;23.40;99.90;;;;;;4980436;28;20438;-67
2022/06/29 06:56:01;;;;;;;7.73;7.10;;;23.70;99.90;;;;;;4994177;28;20476;-67
2022/06/29 06:58:26;;;;;;;8.40;7.80;;;24.10;99.90;;;;;;4981107;28;20199;-72
2022/06/29 07:00:52;;;;;;;8.33;7.63;;;24.30;99.90;;;;;;4976103;28;20179;-68
2022/06/29 07:03:17;;;;;;;7.87;7.20;;;24.70;99.90;;;;;;4995067;28;20258;-67
2022/06/29 07:05:43;;;;;;;8.30;7.60;;;25.00;99.90;;;;;;4993727;28;20226;-68
2022/06/29 07:08:08;;;;;;;8.27;7.57;;;25.40;99.90;;;;;;4993001;28;20211;-68
2022/06/29 07:10:34;;;;;;;7.60;6.93;;;25.60;99.90;;;;;;4995989;28;20187;-67
2022/06/29 07:13:00;;;;;;;7.93;7.40;;;25.60;99.90;;;;;;4994082;28;20664;-67
2022/06/29 07:15:25;;;;;;;7.70;6.90;;;25.60;99.90;;;;;;4990680;28;21845;-68
2022/06/29 07:17:51;;;;;;;6.67;6.27;;;25.70;99.90;;;;;;4991013;28;20196;-67
2022/06/29 07:20:16;;;;;;;7.30;6.63;;;25.70;99.90;;;;;;4996223;28;20186;-67
2022/06/29 07:22:42;;;;;;;8.37;6.20;;;25.70;99.90;;;;;;4992380;28;20210;-68
2022/06/29 07:25:07;;;;;;;7.63;7.03;;;26.10;99.90;;;;;;4993520;28;20187;-67
2022/06/29 07:27:33;;;;;;;7.77;6.83;;;26.40;99.90;;;;;;4990635;28;20211;-68
2022/06/29 07:29:58;;;;;;;7.03;6.53;;;26.50;99.90;;;;;;4990427;28;20277;-67
2022/06/29 07:32:25;;;;;;;6.40;5.90;;;26.70;99.90;;;;;;4991884;28;20266;-68
2022/06/29 07:34:50;;;;;;;6.77;6.23;;;26.80;99.90;;;;;;4993893;28;20183;-68
2022/06/29 07:37:16;;;;;;;7.07;6.67;;;26.80;99.90;;;;;;4997804;28;20833;-67
2022/06/29 07:39:42;;;;;;;6.10;5.70;;;27.00;99.90;;;;;;4991543;28;20187;-67
2022/06/29 07:42:07;;;;;;;6.97;6.37;;;27.10;99.90;;;;;;4997358;28;20180;-67
2022/06/29 07:44:33;;;;;;;8.37;6.73;;;27.00;99.90;;;;;;4991281;28;20176;-68
2022/06/29 07:46:58;;;;;;;7.60;6.97;;;27.00;99.90;;;;;;4991733;28;20282;-67
2022/06/29 07:49:24;;;;;;;6.60;6.20;;;26.80;99.90;;;;;;4989291;28;20242;-67
2022/06/29 07:51:52;;;;;;;7.43;6.83;;;27.00;99.90;;;;;;4997122;28;20529;-67
2022/06/29 07:54:17;;;;;;;6.67;6.27;;;27.20;99.90;;;;;;4991078;28;20178;-68
2022/06/29 07:56:43;;;;;;;6.10;5.70;;;27.60;99.90;;;;;;4992416;28;20556;-68
2022/06/29 07:59:08;;;;;;;7.40;6.80;;;27.80;99.90;;;;;;4994952;28;20192;-67
2022/06/29 08:01:34;;;;;;;6.40;5.90;;;28.00;99.90;;;;;;4989967;28;20183;-68
2022/06/29 08:04:00;;;;;;;7.27;6.67;;;28.30;99.90;;;;;;4989769;28;20321;-67
2022/06/29 08:06:25;;;;;;;6.43;6.03;;;28.60;99.90;;;;;;4997377;28;20229;-67
2022/06/29 08:08:51;;;;;;;7.10;6.50;;;28.70;99.90;;;;;;4985494;28;20191;-69
2022/06/29 08:11:17;;;;;;;6.90;6.30;;;28.50;99.90;;;;;;4989030;28;20195;-67
2022/06/29 08:13:42;;;;;;;6.20;5.80;;;28.40;99.90;;;;;;4991328;28;20519;-67
2022/06/29 08:16:08;;;;;;;7.27;6.63;;;28.20;99.90;;;;;;4990612;28;20235;-68
2022/06/29 08:18:35;;;;;;;7.77;7.20;;;27.50;99.90;;;;;;4988594;28;20199;-67
2022/06/29 08:21:02;;;;;;;6.77;6.30;;;27.50;99.90;;;;;;4993368;28;20564;-67
2022/06/29 08:23:28;;;;;;;6.87;6.10;;;27.40;99.90;;;;;;4992746;28;20455;-66
2022/06/29 08:25:54;;;;;;;7.17;6.67;;;27.70;99.90;;;;;;4974730;28;20473;-67
2022/06/29 08:28:19;;;;;;;6.73;6.33;;;27.50;99.90;;;;;;4993461;28;20183;-68
2022/06/29 08:30:46;;;;;;;7.37;6.77;;;27.60;99.90;;;;;;4990444;28;20553;-67
2022/06/29 08:33:12;;;;;;;6.10;5.67;;;27.60;99.90;;;;;;4989976;28;20184;-68
2022/06/29 08:35:38;;;;;;;5.93;5.53;;;27.40;99.90;;;;;;4993570;28;20828;-67
2022/06/29 08:38:03;;;;;;;6.30;5.70;;;27.90;99.90;;;;;;4995339;28;20451;-68
2022/06/29 08:40:42;;;;;;;5.80;5.40;;;28.00;99.90;;;;;;4989125;28;20664;-68
2022/06/29 08:43:11;;;;;;;5.33;5.00;;;27.90;99.90;;;;;;4990194;28;20516;-67
2022/06/29 08:45:43;;;;;;;6.20;5.80;;;27.80;99.80;;;;;;4990509;28;20515;-67
2022/06/29 08:48:10;;;;;;;5.80;5.40;;;27.60;99.90;;;;;;4991329;28;20458;-68
2022/06/29 08:50:38;;;;;;;7.43;6.83;;;27.20;99.90;;;;;;4988831;28;20441;-67
2022/06/29 08:53:07;;;;;;;7.00;6.40;;;27.20;99.90;;;;;;4990976;28;20517;-67
2022/06/29 08:55:36;;;;;;;6.33;5.90;;;26.90;99.90;;;;;;4988362;28;20493;-67
2022/06/29 08:58:02;;;;;;;6.63;6.23;;;26.50;99.90;;;;;;4992997;28;20461;-67
2022/06/29 09:00:29;;;;;;;9.03;8.23;;;26.50;99.90;;;;;;4992507;28;20449;-68
2022/06/29 09:02:55;;;;;;;5.73;5.33;;;26.80;99.90;;;;;;4989825;28;20430;-68
2022/06/29 09:05:20;;;;;;;7.37;6.80;;;26.90;99.90;;;;;;4988808;28;20443;-67
2022/06/29 09:07:46;;;;;;;6.80;6.40;;;26.50;99.90;;;;;;4988486;28;20786;-67
2022/06/29 09:10:18;;;;;;;5.90;5.50;;;26.40;99.90;;;;;;4996784;28;20202;-68
2022/06/29 09:12:52;;;;;;;7.17;6.57;;;26.60;99.90;;;;;;4988216;28;20270;-67
2022/06/29 09:15:32;;;;;;;7.00;6.50;;;26.70;99.90;;;;;;4988976;28;20490;-67
2022/06/29 09:17:58;;;;;;;6.87;6.17;;;26.70;99.90;;;;;;4990792;28;20454;-68
2022/06/29 09:20:35;;;;;;;6.90;6.30;;;26.90;99.90;;;;;;4971472;28;20438;-67
2022/06/29 09:23:02;;;;;;;6.13;5.63;;;26.90;99.90;;;;;;4990270;28;20526;-68
2022/06/29 09:25:29;;;;;;;7.03;6.33;;;27.00;99.90;;;;;;4993177;28;20461;-68
2022/06/29 09:27:55;;;;;;;6.50;6.10;;;27.00;99.90;;;;;;4994133;28;20527;-67
2022/06/29 09:30:29;;;;;;;7.10;6.60;;;26.90;99.90;;;;;;4990026;28;21012;-68
2022/06/29 09:33:06;;;;;;;8.10;7.50;;;27.30;99.90;;;;;;4989317;28;20458;-68
2022/06/29 09:35:34;;;;;;;6.83;6.43;;;27.50;99.90;;;;;;4989475;28;20477;-68
2022/06/29 09:38:20;;;;;;;8.50;7.90;;;27.60;99.90;;;;;;4990004;28;20458;-67
2022/06/29 09:40:58;;;;;;;7.43;7.00;;;27.60;99.90;;;;;;4991153;28;20437;-68
2022/06/29 09:43:24;;;;;;;7.07;6.53;;;27.30;99.90;;;;;;4989705;28;20784;-67
2022/06/29 09:45:52;;;;;;;6.87;6.37;;;27.60;99.90;;;;;;4991046;28;20443;-68
2022/06/29 09:48:21;;;;;;;7.27;6.87;;;27.80;99.90;;;;;;4985784;28;20555;-67
2022/06/29 09:50:50;;;;;;;7.13;6.53;;;28.00;99.90;;;;;;4992577;28;20439;-68
2022/06/29 09:53:17;;;;;;;6.67;6.20;;;28.30;99.90;;;;;;4989283;28;20477;-70
2022/06/29 09:55:44;;;;;;;6.77;6.27;;;28.50;99.90;;;;;;4987555;28;20462;-67
2022/06/29 09:58:10;;;;;;;7.23;6.70;;;28.50;99.90;;;;;;4989080;28;20944;-70
2022/06/29 10:03:22;;;;;;;6.60;6.10;;;28.50;99.90;;;;;;4987582;28;20434;-69
2022/06/29 10:05:54;;;;;;;7.73;7.13;;;28.60;99.70;;;;;;4990074;28;20438;-68
2022/06/29 10:08:20;;;;;;;9.17;8.30;;;28.90;99.50;;;;;;4989499;28;20437;-68
2022/06/29 10:10:52;;;;;;;8.40;7.70;;;29.20;99.30;;;;;;4990560;28;20890;-68
2022/06/29 10:16:18;;;;;;;7.37;6.63;;;30.40;97.90;;;;;;4998324;28;20493;-64
2022/06/29 10:18:49;;;;;;;6.90;6.40;;;31.00;96.70;;;;;;4996391;28;20837;-63
2022/06/29 10:21:27;;;;;;;7.27;6.87;;;30.90;96.50;;;;;;4992982;28;20459;-63
2022/06/29 10:23:56;;;;;;;6.80;6.40;;;30.90;95.90;;;;;;4996264;28;20434;-64
2022/06/29 10:29:05;;;;;;;6.63;6.13;;;31.50;95.20;;;;;;4988768;28;20434;-65
2022/06/29 10:31:59;;;;;;;7.87;7.10;;;31.30;94.70;;;;;;4992124;28;20434;-65
2022/06/29 10:34:31;;;;;;;6.40;5.80;;;31.00;95.30;;;;;;4989064;28;20439;-69
2022/06/29 10:37:02;;;;;;;6.83;6.40;;;31.00;95.30;;;;;;4991962;28;20474;-67
2022/06/29 10:39:49;;;;;;;6.80;6.30;;;31.30;95.50;;;;;;4992354;28;20864;-68
2022/06/29 10:45:17;;;;;;;15.67;10.40;;;31.40;94.40;;;;;;4991553;28;20493;-67
2022/06/29 10:48:07;;;;;;;6.50;6.00;;;31.30;94.70;;;;;;4986258;28;20508;-68
2022/06/29 10:50:34;;;;;;;7.43;6.77;;;30.60;95.10;;;;;;4989402;28;20438;-69
2022/06/29 10:53:05;;;;;;;10.03;9.03;;;30.00;96.00;;;;;;4992535;28;20438;-68
2022/06/29 10:55:33;;;;;;;8.33;7.53;;;29.50;96.50;;;;;;4988069;28;21825;-67
2022/06/29 10:57:59;;;;;;;7.97;7.27;;;29.40;96.30;;;;;;4989049;28;20469;-67
2022/06/29 11:00:28;;;;;;;8.53;7.43;;;29.20;96.30;;;;;;4995646;28;20467;-66
2022/06/29 11:02:53;;;;;;;8.00;7.30;;;29.20;96.70;;;;;;4987920;28;20470;-61
2022/06/29 11:05:19;;;;;;;7.50;6.70;;;29.10;97.30;;;;;;4979684;28;20490;-62
2022/06/29 11:13:24;;;;;;;6.13;5.53;;;29.00;97.60;;;;;;4986716;28;20448;-63
2022/06/29 11:15:53;;;;;;;6.40;6.00;;;29.40;97.00;;;;;;4992409;28;20470;-62
2022/06/29 11:18:23;;;;;;;6.20;5.70;;;29.80;96.20;;;;;;4984083;28;20451;-63
2022/06/29 11:20:51;;;;;;;6.43;5.60;;;30.70;95.70;;;;;;4991822;28;20434;-63
2022/06/29 11:23:22;;;;;;;6.63;6.13;;;31.70;93.70;;;;;;4987404;28;20435;-62
2022/06/29 11:25:49;;;;;;;7.77;7.20;;;31.90;93.00;;;;;;4992119;28;20469;-63
2022/06/29 11:28:18;;;;;;;5.77;5.27;;;31.50;93.20;;;;;;4983782;28;20442;-62
2022/06/29 11:31:04;;;;;;;6.10;5.70;;;30.90;93.80;;;;;;4985002;28;20453;-60
2022/06/29 11:33:36;;;;;;;6.03;5.63;;;30.40;94.40;;;;;;4987500;28;20908;-63
2022/06/29 11:36:24;;;;;;;7.17;6.57;;;30.40;94.60;;;;;;4994711;28;21042;-64
2022/06/29 11:38:52;;;;;;;6.50;6.10;;;30.60;94.00;;;;;;4994594;28;20924;-67
2022/06/29 11:41:26;;;;;;;6.13;5.40;;;31.90;93.40;;;;;;4981605;28;20445;-66
2022/06/29 11:43:58;;;;;;;6.23;5.60;;;34.80;89.80;;;;;;4994555;28;20441;-67
2022/06/29 11:46:25;;;;;;;5.17;4.87;;;34.60;84.60;;;;;;4951935;28;1036846;-64
2022/06/29 11:51:53;;;;;;;7.47;6.87;;;33.70;84.30;;;;;;4989260;28;20489;-65
2022/06/29 11:54:39;;;;;;;8.20;7.50;;;34.10;84.50;;;;;;4987394;28;20558;-64
2022/06/29 11:57:09;;;;;;;5.03;4.73;;;34.60;84.20;;;;;;4987878;28;20839;-65
2022/06/29 11:59:35;;;;;;;5.50;5.10;;;35.20;81.60;;;;;;4990909;28;20441;-64
2022/06/29 12:02:01;;;;;;;5.90;5.40;;;35.50;80.50;;;;;;4987850;28;20446;-65
2022/06/29 12:04:28;;;;;;;5.10;4.80;;;35.20;79.30;;;;;;4986575;28;20216;-65
2022/06/29 12:07:02;;;;;;;5.57;5.17;;;34.40;78.90;;;;;;4970449;28;20504;-66
2022/06/29 12:09:28;;;;;;;6.33;5.57;;;33.70;81.00;;;;;;4985982;28;20528;-67
2022/06/29 12:11:53;;;;;;;6.30;5.73;;;33.50;80.80;;;;;;4986674;28;20466;-67
2022/06/29 12:14:18;;;;;;;5.67;5.17;;;33.30;80.80;;;;;;4989042;28;20195;-67
2022/06/29 12:16:44;;;;;;;6.07;5.50;;;35.20;77.90;;;;;;4986080;28;20219;-65
2022/06/29 12:19:09;;;;;;;5.13;4.80;;;38.10;89.10;;;;;;4984633;28;20191;-65
2022/06/29 12:21:35;;;;;;;4.90;4.47;;;39.70;83.70;;;;;;4987599;28;20186;-65
2022/06/29 12:24:00;;;;;;;6.30;4.57;;;40.70;77.20;;;;;;4986310;28;20191;-65
2022/06/29 12:26:26;;;;;;;4.37;4.17;;;39.60;73.30;;;;;;4984520;28;20203;-65
2022/06/29 12:28:51;;;;;;;4.73;4.20;;;38.00;73.90;;;;;;4984705;28;20266;-69
2022/06/29 12:31:17;;;;;;;5.00;4.53;;;36.40;75.30;;;;;;4988076;28;20191;-65
2022/06/29 12:33:42;;;;;;;7.43;5.63;;;34.80;78.10;;;;;;4997736;28;20673;-65
2022/06/29 12:36:08;;;;;;;4.87;4.47;;;33.10;80.50;;;;;;4985415;28;20234;-66
2022/06/29 12:38:33;;;;;;;5.20;4.77;;;32.60;83.40;;;;;;4986077;28;20189;-65
2022/06/29 12:40:59;;;;;;;5.43;5.00;;;34.40;81.70;;;;;;4986775;28;20704;-65
2022/06/29 12:43:24;;;;;;;4.93;4.40;;;37.10;76.60;;;;;;4988873;28;20191;-65
2022/06/29 12:45:50;;;;;;;5.23;4.90;;;39.60;71.00;;;;;;4988869;28;20205;-65
2022/06/29 12:48:15;;;;;;;4.63;4.33;;;40.70;65.30;;;;;;4987355;28;20242;-65
2022/06/29 12:50:41;;;;;;;6.10;5.40;;;39.80;64.40;;;;;;4989030;28;20198;-65
2022/06/29 12:53:07;;;;;;;4.90;4.37;;;38.30;65.10;;;;;;4987775;28;20194;-65
2022/06/29 12:55:32;;;;;;;5.70;5.20;;;37.50;68.10;;;;;;4988666;28;20262;-65
2022/06/29 12:57:58;;;;;;;5.10;4.80;;;36.50;68.70;;;;;;4988045;28;20291;-65
2022/06/29 13:00:24;;;;;;;6.10;4.70;;;35.40;71.10;;;;;;4988616;28;20542;-65
2022/06/29 13:02:49;;;;;;;4.87;4.47;;;34.90;72.80;;;;;;4982958;28;20478;-64
2022/06/29 13:05:15;;;;;;;5.97;4.47;;;34.40;73.10;;;;;;4989177;28;20184;-66
2022/06/29 13:07:40;;;;;;;6.20;4.80;;;33.30;74.50;;;;;;4990288;28;20242;-66